createdAt,value
2023-05-03T00:01:50.192Z,7.90
2023-05-03T00:05:17.830Z,7.80
2023-05-03T00:08:45.605Z,7.50
2023-05-03T00:12:12.665Z,7.70
2023-05-03T00:15:39.427Z,8.40
2023-05-03T00:19:07.789Z,7.10
2023-05-03T00:22:37.945Z,7.40
2023-05-03T00:26:04.831Z,7.10
2023-05-03T00:29:31.715Z,7.10
2023-05-03T00:32:59.011Z,7.00
2023-05-03T00:36:28.171Z,7.40
2023-05-03T00:39:55.445Z,6.00
2023-05-03T00:43:22.406Z,7.80
2023-05-03T00:46:49.687Z,7.00
2023-05-03T00:50:17.120Z,7.20
2023-05-03T00:53:44.212Z,7.50
2023-05-03T00:57:11.978Z,6.80
2023-05-03T01:00:38.988Z,6.70
2023-05-03T01:04:07.585Z,7.10
2023-05-03T01:07:43.752Z,6.70
2023-05-03T01:11:21.329Z,5.70
2023-05-03T01:15:00.854Z,5.60
2023-05-03T01:18:35.547Z,5.50
2023-05-03T01:22:23.583Z,6.40
2023-05-03T01:25:51.975Z,6.00
2023-05-03T01:29:19.313Z,6.40
2023-05-03T01:32:57.865Z,5.80
2023-05-03T01:36:32.581Z,6.30
2023-05-03T01:40:04.064Z,5.80
2023-05-03T01:43:32.890Z,7.00
2023-05-03T01:47:00.138Z,6.70
2023-05-03T01:50:26.930Z,7.10
2023-05-03T01:53:54.005Z,6.40
2023-05-03T01:57:20.912Z,7.20
2023-05-03T02:00:49.379Z,7.40
2023-05-03T02:04:16.461Z,7.10
2023-05-03T02:07:43.356Z,7.70
2023-05-03T02:11:10.425Z,6.80
2023-05-03T02:14:37.705Z,7.20
2023-05-03T02:18:05.519Z,7.50
2023-05-03T02:21:32.719Z,7.30
2023-05-03T02:25:00.047Z,7.30
2023-05-03T02:28:27.100Z,7.40
2023-05-03T02:31:54.124Z,7.00
2023-05-03T02:35:21.309Z,6.90
2023-05-03T02:38:48.761Z,6.90
2023-05-03T02:42:16.241Z,7.30
2023-05-03T02:45:45.610Z,7.10
2023-05-03T02:49:13.476Z,8.00
2023-05-03T02:52:40.491Z,6.20
2023-05-03T02:56:09.817Z,7.60
2023-05-03T02:59:36.893Z,7.30
2023-05-03T03:03:04.342Z,8.00
2023-05-03T03:06:31.485Z,7.70
2023-05-03T03:09:59.046Z,6.50
2023-05-03T03:13:26.242Z,7.40
2023-05-03T03:16:54.118Z,7.20
2023-05-03T03:20:21.212Z,6.60
2023-05-03T03:23:48.389Z,7.50
2023-05-03T03:27:15.629Z,6.40
2023-05-03T03:30:42.578Z,8.50
2023-05-03T03:34:16.428Z,7.80
2023-05-03T03:37:43.430Z,9.50
2023-05-03T03:41:10.862Z,10.20
2023-05-03T03:44:38.393Z,10.30
2023-05-03T03:48:06.285Z,13.80
2023-05-03T03:51:33.414Z,21.80
2023-05-03T03:55:01.164Z,20.90
2023-05-03T03:58:28.450Z,21.40
2023-05-03T04:01:55.883Z,19.70
2023-05-03T04:05:23.880Z,26.60
2023-05-03T04:08:51.147Z,28.40
2023-05-03T04:12:18.958Z,28.50
2023-05-03T04:15:46.724Z,18.50
2023-05-03T04:19:14.612Z,15.10
2023-05-03T04:22:42.316Z,10.00
2023-05-03T04:26:23.519Z,7.90
2023-05-03T04:29:59.936Z,7.00
2023-05-03T04:33:30.004Z,7.30
2023-05-03T04:37:01.630Z,7.00
2023-05-03T04:40:28.617Z,7.50
2023-05-03T04:44:01.597Z,6.80
2023-05-03T04:47:28.664Z,7.00
2023-05-03T04:50:55.878Z,6.90
2023-05-03T04:54:23.761Z,6.70
2023-05-03T04:57:50.800Z,6.50
2023-05-03T05:01:18.215Z,7.00
2023-05-03T05:04:46.493Z,6.00
2023-05-03T05:08:13.907Z,7.00
2023-05-03T05:11:49.150Z,6.80
2023-05-03T05:15:16.703Z,6.30
2023-05-03T05:18:44.623Z,7.20
2023-05-03T05:22:11.937Z,6.10
2023-05-03T05:25:43.867Z,5.80
2023-05-03T05:29:11.035Z,6.30
2023-05-03T05:32:38.095Z,6.10
2023-05-03T05:36:08.529Z,5.90
2023-05-03T05:39:35.815Z,6.10
2023-05-03T05:43:03.299Z,5.30
2023-05-03T05:46:31.286Z,5.50
2023-05-03T05:49:59.419Z,5.60
2023-05-03T05:53:27.429Z,5.90
2023-05-03T05:56:58.698Z,5.10
2023-05-03T06:00:27.106Z,5.10
2023-05-03T06:03:55.601Z,5.20
2023-05-03T06:07:25.093Z,5.50
2023-05-03T06:10:53.286Z,4.70
2023-05-03T06:14:20.947Z,4.70
2023-05-03T06:17:48.547Z,4.60
2023-05-03T06:21:15.805Z,4.90
2023-05-03T06:24:42.602Z,4.50
2023-05-03T06:28:09.412Z,5.20
2023-05-03T06:31:37.033Z,4.70
2023-05-03T06:35:05.585Z,4.60
2023-05-03T06:38:33.196Z,4.40
2023-05-03T06:42:00.218Z,4.80
2023-05-03T06:45:34.465Z,4.10
2023-05-03T06:49:01.966Z,4.30
2023-05-03T06:52:29.250Z,4.00
2023-05-03T06:55:56.148Z,4.10
2023-05-03T06:59:23.192Z,3.80
2023-05-03T07:02:50.385Z,3.90
2023-05-03T07:06:18.476Z,4.60
2023-05-03T07:09:45.386Z,4.10
2023-05-03T07:13:12.403Z,3.40
2023-05-03T07:16:39.622Z,3.80
2023-05-03T07:20:08.424Z,2.40
2023-05-03T07:23:35.283Z,2.20
2023-05-03T07:27:02.300Z,3.00
2023-05-03T07:30:29.574Z,2.30
2023-05-03T07:33:57.125Z,2.70
2023-05-03T07:37:28.172Z,2.90
2023-05-03T07:40:56.300Z,2.60
2023-05-03T07:44:25.355Z,2.10
2023-05-03T07:47:54.188Z,2.20
2023-05-03T07:51:22.132Z,2.30
2023-05-03T07:54:49.608Z,2.40
2023-05-03T07:58:21.218Z,2.40
2023-05-03T08:01:54.087Z,2.60
2023-05-03T08:05:23.484Z,2.50
2023-05-03T08:08:51.702Z,2.80
2023-05-03T08:12:19.204Z,2.30
2023-05-03T08:15:50.776Z,2.60
2023-05-03T08:19:18.653Z,3.10
2023-05-03T08:22:48.042Z,2.50
2023-05-03T08:26:16.476Z,2.40
2023-05-03T08:29:44.901Z,2.30
2023-05-03T08:33:12.259Z,2.30
2023-05-03T08:36:41.037Z,2.20
2023-05-03T08:40:14.734Z,2.50
2023-05-03T08:43:53.442Z,2.60
2023-05-03T08:47:22.202Z,2.50
2023-05-03T08:50:51.752Z,2.50
2023-05-03T08:54:20.797Z,2.20
2023-05-03T08:57:50.163Z,2.10
2023-05-03T09:01:17.669Z,2.70
2023-05-03T09:04:47.538Z,2.10
2023-05-03T09:11:43.077Z,2.30
2023-05-03T09:15:22.756Z,2.40
2023-05-03T09:19:01.275Z,2.60
2023-05-03T09:22:32.840Z,2.40
2023-05-03T09:26:01.322Z,2.40
2023-05-03T09:29:34.206Z,2.70
2023-05-03T09:33:01.292Z,2.40
2023-05-03T09:36:30.280Z,2.30
2023-05-03T09:40:10.525Z,2.40
2023-05-03T09:43:50.684Z,2.40
2023-05-03T09:47:19.854Z,3.30
2023-05-03T09:50:47.068Z,1.90
2023-05-03T09:54:17.042Z,2.70
2023-05-03T09:57:48.110Z,2.50
2023-05-03T10:01:18.009Z,2.60
2023-05-03T10:04:53.294Z,2.40
2023-05-03T10:08:27.983Z,2.70
2023-05-03T10:11:58.955Z,2.20
2023-05-03T10:15:28.708Z,2.10
2023-05-03T10:19:01.569Z,2.10
2023-05-03T10:22:28.737Z,1.90
2023-05-03T10:26:17.537Z,2.70
2023-05-03T10:29:58.134Z,2.00
2023-05-03T10:33:36.228Z,2.20
2023-05-03T10:37:09.739Z,2.00
2023-05-03T10:40:46.434Z,2.20
2023-05-03T10:44:28.353Z,2.30
2023-05-03T10:48:23.711Z,2.40
2023-05-03T10:51:52.013Z,2.30
2023-05-03T10:55:25.168Z,2.20
2023-05-03T10:58:56.423Z,2.40
2023-05-03T11:02:33.463Z,2.20
2023-05-03T11:06:00.578Z,2.30
2023-05-03T11:09:35.171Z,2.90
2023-05-03T11:13:02.233Z,2.50
2023-05-03T11:16:29.737Z,2.10
2023-05-03T11:19:56.607Z,2.60
2023-05-03T11:23:28.967Z,7.50
2023-05-03T11:26:55.981Z,2.80
2023-05-03T11:30:22.971Z,4.90
2023-05-03T11:33:50.364Z,3.50
2023-05-03T11:37:18.943Z,2.70
2023-05-03T11:40:46.218Z,2.60
2023-05-03T11:44:17.492Z,3.00
2023-05-03T11:47:45.078Z,2.20
2023-05-03T11:51:14.033Z,1.90
2023-05-03T11:54:41.445Z,2.70
2023-05-03T11:58:13.698Z,2.30
2023-05-03T12:01:40.779Z,2.10
2023-05-03T12:05:10.366Z,3.00
2023-05-03T12:08:41.164Z,3.00
2023-05-03T12:12:11.244Z,4.10
2023-05-03T12:15:43.799Z,3.30
2023-05-03T12:22:37.197Z,3.40
2023-05-03T12:26:05.431Z,2.10
2023-05-03T12:29:35.192Z,2.70
2023-05-03T12:33:04.874Z,1.70
2023-05-03T12:36:36.896Z,1.70
2023-05-03T12:43:38.483Z,2.00
2023-05-03T12:47:09.557Z,2.10
2023-05-03T12:50:38.548Z,2.60
2023-05-03T12:54:10.215Z,4.20
2023-05-03T12:57:38.170Z,2.70
2023-05-03T13:01:37.233Z,2.20
2023-05-03T13:04:58.798Z,1.80
2023-05-03T13:08:33.835Z,2.50
2023-05-03T13:12:02.425Z,2.00
2023-05-03T13:15:29.861Z,2.00
2023-05-03T13:18:56.868Z,2.30
2023-05-03T13:22:24.124Z,2.80
2023-05-03T13:25:54.240Z,2.20
2023-05-03T13:29:22.212Z,2.40
2023-05-03T13:32:49.365Z,2.40
2023-05-03T13:36:16.749Z,2.50
2023-05-03T13:39:43.699Z,2.50
2023-05-03T13:43:11.388Z,2.40
2023-05-03T13:46:40.816Z,2.50
2023-05-03T13:50:10.012Z,2.20
2023-05-03T13:53:36.862Z,4.40
2023-05-03T13:57:04.164Z,2.70
2023-05-03T14:00:32.369Z,2.40
2023-05-03T14:03:59.890Z,2.40
2023-05-03T14:07:26.824Z,2.20
2023-05-03T14:10:54.221Z,1.40
2023-05-03T14:14:21.190Z,1.60
2023-05-03T14:17:50.946Z,2.40
2023-05-03T14:21:18.675Z,2.10
2023-05-03T14:24:45.719Z,2.70
2023-05-03T14:28:12.600Z,2.60
2023-05-03T14:31:39.703Z,4.70
2023-05-03T14:35:07.593Z,7.80
2023-05-03T14:38:34.699Z,3.10
2023-05-03T14:42:03.284Z,2.40
2023-05-03T14:45:30.361Z,2.60
2023-05-03T14:48:57.323Z,2.00
2023-05-03T14:52:24.833Z,1.70
2023-05-03T14:55:53.813Z,2.10
2023-05-03T14:59:21.100Z,1.60
2023-05-03T15:02:48.692Z,2.10
2023-05-03T15:06:16.773Z,2.30
2023-05-03T15:09:44.878Z,2.70
2023-05-03T15:13:12.043Z,1.90
2023-05-03T15:16:39.378Z,1.90
2023-05-03T15:20:09.838Z,2.00
2023-05-03T15:23:36.889Z,1.70
2023-05-03T15:27:04.704Z,1.70
2023-05-03T15:30:31.748Z,1.80
2023-05-03T15:34:00.028Z,2.10
2023-05-03T15:37:37.557Z,1.80
2023-05-03T15:41:04.813Z,2.60
2023-05-03T15:44:31.997Z,2.60
2023-05-03T15:47:59.011Z,2.50
2023-05-03T15:51:28.009Z,2.20
2023-05-03T15:54:56.238Z,1.80
2023-05-03T15:58:23.114Z,2.00
2023-05-03T16:01:51.193Z,2.00
2023-05-03T16:05:18.918Z,1.60
2023-05-03T16:08:46.037Z,2.40
2023-05-03T16:12:12.823Z,2.20
2023-05-03T16:15:39.828Z,1.80
2023-05-03T16:19:08.803Z,1.80
2023-05-03T16:22:37.194Z,2.20
2023-05-03T16:26:14.694Z,2.50
2023-05-03T16:29:41.727Z,2.30
2023-05-03T16:33:08.762Z,2.40
2023-05-03T16:36:42.463Z,2.60
2023-05-03T16:40:11.693Z,2.80
2023-05-03T16:43:39.620Z,2.90
2023-05-03T16:47:07.318Z,3.20
2023-05-03T16:50:34.462Z,2.90
2023-05-03T16:54:04.313Z,2.70
2023-05-03T16:57:32.830Z,2.40
2023-05-03T17:01:00.270Z,2.50
2023-05-03T17:04:28.289Z,2.60
2023-05-03T17:07:55.382Z,2.00
2023-05-03T17:11:23.738Z,2.20
2023-05-03T17:14:51.819Z,7.40
2023-05-03T17:18:19.388Z,5.50
2023-05-03T17:21:47.905Z,5.70
2023-05-03T17:25:15.501Z,3.20
2023-05-03T17:28:44.593Z,4.80
2023-05-03T17:32:11.601Z,3.20
2023-05-03T17:35:38.597Z,3.00
2023-05-03T17:39:06.235Z,6.20
2023-05-03T17:42:34.198Z,13.00
2023-05-03T17:46:11.025Z,15.60
2023-05-03T17:49:39.287Z,19.30
2023-05-03T17:53:07.180Z,19.10
2023-05-03T17:56:34.366Z,11.30
2023-05-03T18:00:02.890Z,9.60
2023-05-03T18:03:34.071Z,5.90
2023-05-03T18:07:01.553Z,5.60
2023-05-03T18:10:29.501Z,4.40
2023-05-03T18:13:57.552Z,4.40
2023-05-03T18:17:26.419Z,4.80
2023-05-03T18:21:01.654Z,7.10
2023-05-03T18:24:29.609Z,6.70
2023-05-03T18:27:58.204Z,6.20
2023-05-03T18:31:25.822Z,5.60
2023-05-03T18:34:53.218Z,7.60
2023-05-03T18:38:21.930Z,9.80
2023-05-03T18:41:50.135Z,8.90
2023-05-03T18:45:19.583Z,13.20
2023-05-03T18:48:47.667Z,11.10
2023-05-03T18:52:14.975Z,11.30
2023-05-03T18:55:43.075Z,11.40
2023-05-03T18:59:11.199Z,14.70
2023-05-03T19:02:38.272Z,17.90
2023-05-03T19:06:07.515Z,15.70
2023-05-03T19:09:40.317Z,10.40
2023-05-03T19:13:07.876Z,7.80
2023-05-03T19:16:40.893Z,7.50
2023-05-03T19:20:12.041Z,8.80
2023-05-03T19:23:39.921Z,7.70
2023-05-03T19:27:07.336Z,6.40
2023-05-03T19:30:34.577Z,6.50
2023-05-03T19:34:01.443Z,5.30
2023-05-03T19:37:28.147Z,5.60
2023-05-03T19:41:05.978Z,6.30
2023-05-03T19:44:33.516Z,9.70
2023-05-03T19:48:00.598Z,25.20
2023-05-03T19:51:27.984Z,18.10
2023-05-03T19:54:56.362Z,17.50
2023-05-03T19:58:23.331Z,17.20
2023-05-03T20:01:50.481Z,16.90
2023-05-03T20:05:17.837Z,17.10
2023-05-03T20:08:44.785Z,14.30
2023-05-03T20:12:13.370Z,15.20
2023-05-03T20:15:40.221Z,15.80
2023-05-03T20:19:07.079Z,14.70
2023-05-03T20:22:33.822Z,14.00
2023-05-03T20:26:01.480Z,15.10
2023-05-03T20:29:28.418Z,15.30
2023-05-03T20:32:55.368Z,18.40
2023-05-03T20:36:22.644Z,17.00
2023-05-03T20:39:49.558Z,17.00
2023-05-03T20:43:17.471Z,20.90
2023-05-03T20:46:45.518Z,18.10
2023-05-03T20:50:13.299Z,16.90
2023-05-03T20:53:40.625Z,16.10
2023-05-03T20:57:08.714Z,14.00
2023-05-03T21:00:35.729Z,12.70
2023-05-03T21:04:04.103Z,11.80
2023-05-03T21:07:31.278Z,10.70
2023-05-03T21:10:58.330Z,10.40
2023-05-03T21:14:25.286Z,9.90
2023-05-03T21:17:52.270Z,10.50
2023-05-03T21:21:19.471Z,11.20
2023-05-03T21:24:46.867Z,21.40
2023-05-03T21:28:13.986Z,17.90
2023-05-03T21:31:40.909Z,16.90
2023-05-03T21:35:10.309Z,18.30
2023-05-03T21:38:37.347Z,16.40
2023-05-03T21:42:07.685Z,16.80
2023-05-03T21:45:34.550Z,17.50
2023-05-03T21:49:01.408Z,14.60
2023-05-03T21:52:28.239Z,12.90
2023-05-03T21:55:57.948Z,13.30
2023-05-03T21:59:24.752Z,12.90
2023-05-03T22:02:51.979Z,13.10
2023-05-03T22:06:19.180Z,15.40
2023-05-03T22:09:48.841Z,15.80
2023-05-03T22:13:16.041Z,24.40
2023-05-03T22:16:43.355Z,66.90
2023-05-03T22:20:12.471Z,44.90
2023-05-03T22:23:39.513Z,45.10
2023-05-03T22:27:06.594Z,35.80
2023-05-03T22:30:33.559Z,39.90
2023-05-03T22:34:00.727Z,41.40
2023-05-03T22:37:27.870Z,45.00
2023-05-03T22:40:54.620Z,49.30
2023-05-03T22:44:21.648Z,30.40
2023-05-03T22:47:48.744Z,24.00
2023-05-03T22:51:15.729Z,26.50
2023-05-03T22:54:42.742Z,24.40
2023-05-03T22:58:09.622Z,22.60
2023-05-03T23:01:37.704Z,21.60
2023-05-03T23:05:04.854Z,21.60
2023-05-03T23:08:32.168Z,21.10
2023-05-03T23:12:00.563Z,22.60
2023-05-03T23:15:29.428Z,20.00
2023-05-03T23:18:56.397Z,21.30
2023-05-03T23:22:23.478Z,19.90
2023-05-03T23:25:50.615Z,20.30
2023-05-03T23:29:18.097Z,19.40
2023-05-03T23:32:46.536Z,18.60
2023-05-03T23:36:14.251Z,17.30
2023-05-03T23:39:45.823Z,16.70
2023-05-03T23:43:12.652Z,16.40
2023-05-03T23:46:39.896Z,15.30
2023-05-03T23:50:08.810Z,16.10
2023-05-03T23:53:35.867Z,16.40
2023-05-03T23:57:02.829Z,16.50
